San Bernardino, Switzerland
Current Conditions -  °F | °C
As of 4:50 AM on Monday 24 Nov 2014 (Local Time) from LSZL Reporting Station
Broken Clouds Broken Clouds  
Wind Chill: 39°   Ceiling: 14000
Heat Index: 39°   Visibility: 2.3mi
Dew Point: 39°   Wind: 0mph
Humidity: 100%   Direction: NA
Pressure: 30.27"   Gusts: NA
Location:  46.47°N, 9.18°E
Report Text: LSZL 240350Z AUTO 00000KT 3700NDV BKN140 04/04 Q1025 RMK GRN
Loading
Personal Weather Stations






























Interactive Weather Map New forecast layout! Learn more

10-Day Weather Forecast

Advertisements
Track Severe Weather on mobile